createdAt,value
2022-08-25T00:02:07.518Z,67.20
2022-08-25T00:04:36.640Z,67.20
2022-08-25T00:07:05.822Z,67.00
2022-08-25T00:09:34.975Z,67.00
2022-08-25T00:12:03.698Z,66.90
2022-08-25T00:14:35.135Z,66.90
2022-08-25T00:17:02.661Z,67.00
2022-08-25T00:19:32.879Z,66.90
2022-08-25T00:22:00.798Z,66.90
2022-08-25T00:24:28.580Z,66.90
2022-08-25T00:26:57.197Z,67.00
2022-08-25T00:29:28.393Z,66.90
2022-08-25T00:31:56.511Z,67.00
2022-08-25T00:34:26.620Z,67.00
2022-08-25T00:36:53.857Z,67.10
2022-08-25T00:39:22.388Z,67.10
2022-08-25T00:41:51.716Z,67.10
2022-08-25T00:44:19.289Z,67.20
2022-08-25T00:46:51.861Z,67.20
2022-08-25T00:49:51.645Z,67.30
2022-08-25T00:52:22.925Z,67.20
2022-08-25T00:55:07.856Z,67.00
2022-08-25T00:57:40.418Z,67.10
2022-08-25T01:00:20.138Z,67.20
2022-08-25T01:02:47.219Z,67.20
2022-08-25T01:05:14.472Z,67.20
2022-08-25T01:07:43.614Z,67.30
2022-08-25T01:10:13.751Z,67.30
2022-08-25T01:12:41.451Z,67.30
2022-08-25T01:15:10.879Z,67.30
2022-08-25T01:17:50.803Z,67.40
2022-08-25T01:20:19.874Z,67.60
2022-08-25T01:22:47.980Z,67.50
2022-08-25T01:26:04.361Z,67.60
2022-08-25T01:28:31.959Z,67.50
2022-08-25T01:30:58.764Z,67.60
2022-08-25T01:33:25.772Z,67.60
2022-08-25T01:35:52.512Z,67.70
2022-08-25T01:38:20.893Z,67.70
2022-08-25T01:40:50.334Z,67.80
2022-08-25T01:43:37.175Z,67.80
2022-08-25T01:46:04.814Z,68.00
2022-08-25T01:48:32.877Z,67.90
2022-08-25T01:50:59.732Z,68.00
2022-08-25T01:53:33.209Z,68.00
2022-08-25T01:56:09.794Z,68.20
2022-08-25T01:58:38.966Z,68.10
2022-08-25T02:01:09.665Z,68.10
2022-08-25T02:03:41.980Z,68.20
2022-08-25T02:06:15.157Z,68.20
2022-08-25T02:08:42.764Z,68.10
2022-08-25T02:11:14.168Z,68.10
2022-08-25T02:13:42.373Z,68.20
2022-08-25T02:16:15.206Z,68.10
2022-08-25T02:18:42.140Z,68.10
2022-08-25T02:21:11.350Z,68.10
2022-08-25T02:23:38.279Z,68.10
2022-08-25T02:26:05.592Z,68.10
2022-08-25T02:28:32.399Z,68.20
2022-08-25T02:39:26.236Z,68.10
2022-08-25T02:41:53.132Z,67.90
2022-08-25T02:44:19.925Z,68.10
2022-08-25T02:46:46.775Z,68.10
2022-08-25T02:49:13.577Z,68.10
2022-08-25T02:51:40.479Z,68.10
2022-08-25T02:54:07.309Z,68.10
2022-08-25T02:56:34.840Z,68.10
2022-08-25T02:59:02.718Z,68.00
2022-08-25T03:01:30.530Z,68.00
2022-08-25T03:03:57.620Z,68.00
2022-08-25T03:06:25.021Z,68.00
2022-08-25T03:08:53.199Z,67.90
2022-08-25T03:11:21.155Z,67.90
2022-08-25T03:13:51.171Z,67.70
2022-08-25T03:16:19.021Z,67.60
2022-08-25T03:18:45.971Z,67.60
2022-08-25T03:21:15.804Z,67.50
2022-08-25T03:23:44.024Z,67.40
2022-08-25T03:26:29.784Z,67.30
2022-08-25T03:28:57.053Z,67.00
2022-08-25T03:31:27.698Z,66.80
2022-08-25T03:33:55.361Z,66.70
2022-08-25T03:36:22.149Z,66.40
2022-08-25T03:38:49.179Z,66.20
2022-08-25T03:41:18.971Z,65.90
2022-08-25T03:43:47.570Z,65.80
2022-08-25T03:46:24.154Z,65.60
2022-08-25T03:48:52.147Z,65.60
2022-08-25T03:51:21.308Z,65.50
2022-08-25T03:53:48.126Z,65.40
2022-08-25T03:56:15.067Z,65.30
2022-08-25T03:58:42.049Z,65.10
2022-08-25T04:01:09.535Z,64.90
2022-08-25T04:03:36.493Z,64.70
2022-08-25T04:06:06.630Z,64.60
2022-08-25T04:08:33.824Z,64.50
2022-08-25T04:11:09.381Z,64.30
2022-08-25T04:13:36.896Z,64.20
2022-08-25T04:16:10.688Z,64.20
2022-08-25T04:18:37.517Z,64.00
2022-08-25T04:21:06.073Z,63.80
2022-08-25T04:23:33.072Z,63.70
2022-08-25T04:25:59.963Z,63.70
2022-08-25T04:28:26.958Z,63.70
2022-08-25T04:30:53.720Z,63.60
2022-08-25T04:33:20.475Z,63.60
2022-08-25T04:35:51.116Z,63.50
2022-08-25T04:38:18.250Z,63.50
2022-08-25T04:40:45.063Z,63.40
2022-08-25T04:43:11.844Z,63.40
2022-08-25T04:45:40.264Z,63.30
2022-08-25T04:48:07.240Z,63.30
2022-08-25T04:50:34.189Z,63.20
2022-08-25T04:53:01.349Z,63.30
2022-08-25T04:55:28.327Z,63.30
2022-08-25T04:57:55.304Z,63.10
2022-08-25T05:00:22.215Z,63.00
2022-08-25T05:02:49.275Z,63.00
2022-08-25T05:05:16.437Z,62.80
2022-08-25T05:07:43.278Z,62.50
2022-08-25T05:10:10.202Z,62.40
2022-08-25T05:12:37.110Z,62.20
2022-08-25T05:15:24.594Z,62.00
2022-08-25T05:17:55.694Z,61.90
2022-08-25T05:20:24.173Z,61.60
2022-08-25T05:22:51.170Z,61.50
2022-08-25T05:25:18.285Z,61.20
2022-08-25T05:27:45.067Z,61.10
2022-08-25T05:30:12.761Z,60.90
2022-08-25T05:32:39.701Z,60.70
2022-08-25T05:35:07.565Z,60.60
2022-08-25T05:37:35.067Z,60.50
2022-08-25T05:40:01.987Z,60.50
2022-08-25T05:42:28.940Z,60.40
2022-08-25T05:44:55.903Z,60.20
2022-08-25T05:47:22.790Z,60.10
2022-08-25T05:49:49.722Z,60.00
2022-08-25T05:52:20.216Z,59.60
2022-08-25T05:54:47.399Z,59.80
2022-08-25T05:57:16.144Z,59.70
2022-08-25T05:59:43.525Z,59.80
2022-08-25T06:02:28.905Z,59.60
2022-08-25T06:04:55.694Z,59.60
2022-08-25T06:07:22.461Z,59.40
2022-08-25T06:09:49.967Z,59.00
2022-08-25T06:12:18.123Z,58.70
2022-08-25T06:14:45.012Z,58.60
2022-08-25T06:17:11.884Z,58.20
2022-08-25T06:19:39.675Z,58.00
2022-08-25T06:22:08.099Z,57.80
2022-08-25T06:24:35.061Z,57.60
2022-08-25T06:27:01.932Z,57.10
2022-08-25T06:29:29.173Z,57.00
2022-08-25T06:31:56.048Z,56.30
2022-08-25T06:34:23.908Z,56.00
2022-08-25T06:36:51.503Z,55.80
2022-08-25T06:39:18.431Z,55.30
2022-08-25T06:41:45.263Z,55.00
2022-08-25T06:44:12.401Z,54.90
2022-08-25T06:46:39.332Z,54.70
2022-08-25T06:49:06.811Z,54.30
2022-08-25T06:51:35.967Z,54.20
2022-08-25T06:54:04.858Z,54.50
2022-08-25T06:56:31.731Z,54.30
2022-08-25T06:58:58.532Z,54.20
2022-08-25T07:01:27.214Z,54.30
2022-08-25T07:04:00.058Z,53.80
2022-08-25T07:06:28.682Z,53.10
2022-08-25T07:08:55.594Z,53.00
2022-08-25T07:11:22.867Z,53.10
2022-08-25T07:13:50.628Z,53.20
2022-08-25T07:16:20.572Z,53.00
2022-08-25T07:18:48.400Z,53.00
2022-08-25T07:21:15.841Z,53.10
2022-08-25T07:23:42.802Z,53.20
2022-08-25T07:26:36.650Z,53.30
2022-08-25T07:29:07.282Z,53.40
2022-08-25T07:31:34.465Z,53.20
2022-08-25T07:34:19.843Z,52.80
2022-08-25T07:36:47.060Z,52.60
2022-08-25T07:39:13.862Z,52.40
2022-08-25T07:41:42.368Z,52.10
2022-08-25T07:44:11.307Z,51.70
2022-08-25T07:46:38.728Z,51.40
2022-08-25T07:49:16.452Z,51.20
2022-08-25T07:52:05.670Z,50.90
2022-08-25T07:54:34.650Z,50.60
2022-08-25T07:57:03.531Z,50.40
2022-08-25T07:59:31.114Z,50.10
2022-08-25T08:02:08.146Z,49.80
2022-08-25T08:04:36.574Z,50.20
2022-08-25T08:07:03.650Z,50.00
2022-08-25T08:09:31.240Z,50.10
2022-08-25T08:11:58.005Z,49.40
2022-08-25T08:14:24.826Z,48.20
2022-08-25T08:16:51.918Z,47.00
2022-08-25T08:19:18.843Z,46.10
2022-08-25T08:21:50.687Z,44.80
2022-08-25T08:24:38.415Z,44.40
2022-08-25T08:27:09.070Z,42.90
2022-08-25T08:29:37.462Z,41.40
2022-08-25T08:32:05.874Z,40.60
2022-08-25T08:34:33.325Z,39.90
2022-08-25T08:37:01.090Z,39.70
2022-08-25T08:39:29.580Z,38.30
2022-08-25T08:42:22.363Z,38.20
2022-08-25T08:45:05.227Z,37.70
2022-08-25T08:48:18.267Z,36.20
2022-08-25T08:51:32.762Z,35.60
2022-08-25T08:54:25.047Z,35.20
2022-08-25T08:57:11.825Z,34.60
2022-08-25T08:59:51.686Z,33.70
2022-08-25T09:02:39.407Z,33.40
2022-08-25T09:05:20.528Z,33.30
2022-08-25T09:08:07.499Z,33.20
2022-08-25T09:11:10.414Z,33.20
2022-08-25T09:13:53.200Z,32.50
2022-08-25T09:16:55.117Z,32.20
2022-08-25T09:19:33.340Z,32.10
2022-08-25T09:22:35.014Z,31.40
2022-08-25T09:24:59.093Z,30.70
2022-08-25T09:27:47.005Z,30.20
2022-08-25T09:30:19.547Z,29.70
2022-08-25T09:32:53.639Z,29.60
2022-08-25T09:35:26.103Z,29.60
2022-08-25T09:38:04.780Z,29.80
2022-08-25T09:40:35.315Z,29.50
2022-08-25T09:43:09.059Z,29.10
2022-08-25T09:45:44.778Z,29.00
2022-08-25T09:48:56.713Z,27.90
2022-08-25T09:51:38.088Z,27.60
2022-08-25T09:54:18.071Z,27.50
2022-08-25T09:57:02.082Z,27.60
2022-08-25T09:59:35.724Z,26.90
2022-08-25T10:02:25.201Z,27.10
2022-08-25T10:04:53.395Z,26.80
2022-08-25T10:07:27.657Z,26.40
2022-08-25T10:10:04.603Z,25.60
2022-08-25T10:12:42.545Z,25.10
2022-08-25T10:15:29.768Z,25.20
2022-08-25T10:18:17.235Z,25.40
2022-08-25T10:20:44.794Z,25.10
2022-08-25T10:23:14.368Z,24.40
2022-08-25T10:25:59.010Z,24.50
2022-08-25T10:28:36.914Z,25.00
2022-08-25T10:31:24.044Z,25.50
2022-08-25T10:34:29.275Z,25.10
2022-08-25T10:37:27.819Z,25.30
2022-08-25T10:40:37.295Z,25.40
2022-08-25T10:43:41.752Z,25.80
2022-08-25T10:46:28.379Z,26.40
2022-08-25T10:49:13.733Z,25.60
2022-08-25T10:51:59.323Z,25.20
2022-08-25T10:54:45.431Z,25.00
2022-08-25T10:57:30.466Z,24.90
2022-08-25T11:00:11.590Z,24.60
2022-08-25T11:03:25.588Z,25.00
2022-08-25T11:05:59.796Z,25.40
2022-08-25T11:08:51.459Z,25.60
2022-08-25T11:11:46.546Z,25.70
2022-08-25T11:14:34.410Z,26.10
2022-08-25T11:17:26.090Z,25.70
2022-08-25T11:20:00.733Z,26.10
2022-08-25T11:22:39.726Z,26.70
2022-08-25T11:25:25.580Z,26.80
2022-08-25T11:28:23.026Z,26.70
2022-08-25T11:30:52.938Z,26.00
2022-08-25T11:33:20.535Z,25.90
2022-08-25T11:36:02.554Z,25.70
2022-08-25T11:38:53.567Z,25.60
2022-08-25T11:42:01.236Z,25.30
2022-08-25T11:44:33.952Z,24.50
2022-08-25T11:47:00.794Z,24.00
2022-08-25T11:50:00.911Z,23.40
2022-08-25T11:52:34.770Z,23.40
2022-08-25T11:55:22.951Z,22.20
2022-08-25T11:57:53.561Z,22.30
2022-08-25T12:00:41.489Z,22.50
2022-08-25T12:03:36.206Z,22.10
2022-08-25T12:06:18.029Z,22.00
2022-08-25T12:08:51.326Z,22.10
2022-08-25T12:11:47.578Z,22.80
2022-08-25T12:14:22.670Z,22.50
2022-08-25T12:16:56.451Z,22.40
2022-08-25T12:19:36.812Z,22.10
2022-08-25T12:22:04.889Z,21.40
2022-08-25T12:24:51.499Z,21.30
2022-08-25T12:27:39.407Z,20.70
2022-08-25T12:30:26.302Z,20.70
2022-08-25T12:33:09.379Z,20.70
2022-08-25T12:35:57.354Z,21.10
2022-08-25T12:38:49.573Z,20.40
2022-08-25T12:41:22.110Z,19.80
2022-08-25T12:43:54.407Z,20.20
2022-08-25T12:46:21.398Z,20.10
2022-08-25T12:49:12.543Z,19.80
2022-08-25T12:52:28.017Z,20.20
2022-08-25T12:55:00.601Z,20.50
2022-08-25T12:57:32.799Z,20.20
2022-08-25T13:00:06.904Z,19.70
2022-08-25T13:03:08.264Z,19.70
2022-08-25T13:05:46.663Z,19.90
2022-08-25T13:09:01.322Z,19.60
2022-08-25T13:11:36.837Z,19.60
2022-08-25T13:14:14.897Z,19.60
2022-08-25T13:16:53.036Z,19.90
2022-08-25T13:19:21.110Z,19.80
2022-08-25T13:21:49.515Z,19.70
2022-08-25T13:24:25.510Z,19.80
2022-08-25T13:27:24.427Z,19.80
2022-08-25T13:30:03.832Z,20.10
2022-08-25T13:32:36.634Z,20.20
2022-08-25T13:35:32.206Z,20.60
2022-08-25T13:38:17.046Z,20.60
2022-08-25T13:40:44.600Z,20.40
2022-08-25T13:43:14.353Z,20.70
2022-08-25T13:45:47.403Z,20.50
2022-08-25T13:48:30.908Z,20.40
2022-08-25T13:51:08.955Z,20.10
2022-08-25T13:53:38.593Z,19.70
2022-08-25T13:56:05.733Z,19.80
2022-08-25T13:58:44.505Z,20.10
2022-08-25T14:01:47.775Z,19.80
2022-08-25T14:04:34.285Z,19.70
2022-08-25T14:07:12.896Z,19.70
2022-08-25T14:09:48.439Z,19.70
2022-08-25T14:12:38.164Z,20.20
2022-08-25T14:15:17.091Z,20.20
2022-08-25T14:17:48.451Z,20.30
2022-08-25T14:20:28.588Z,20.40
2022-08-25T14:22:58.419Z,21.20
2022-08-25T14:25:28.515Z,21.60
2022-08-25T14:28:16.288Z,21.80
2022-08-25T14:30:52.528Z,22.20
2022-08-25T14:33:24.005Z,22.80
2022-08-25T14:35:53.865Z,23.50
2022-08-25T14:38:22.457Z,24.00
2022-08-25T14:40:50.266Z,23.90
2022-08-25T14:43:17.887Z,23.80
2022-08-25T14:45:51.384Z,23.60
2022-08-25T14:48:30.611Z,22.80
2022-08-25T14:50:59.690Z,22.50
2022-08-25T14:53:27.825Z,22.00
2022-08-25T14:55:58.945Z,21.90
2022-08-25T14:58:26.745Z,21.60
2022-08-25T15:00:54.179Z,21.40
2022-08-25T15:03:32.062Z,21.00
2022-08-25T15:06:00.603Z,20.70
2022-08-25T15:08:46.534Z,20.70
2022-08-25T15:11:14.894Z,20.80
2022-08-25T15:13:49.005Z,21.10
2022-08-25T15:16:33.978Z,21.50
2022-08-25T15:19:06.674Z,20.90
2022-08-25T15:21:34.720Z,21.20
2022-08-25T15:24:03.400Z,21.50
2022-08-25T15:26:31.159Z,21.70
2022-08-25T15:28:59.531Z,21.50
2022-08-25T15:31:26.898Z,21.60
2022-08-25T15:33:54.643Z,21.40
2022-08-25T15:36:25.655Z,21.30
2022-08-25T15:38:53.224Z,21.30
2022-08-25T15:41:22.387Z,21.40
2022-08-25T15:43:54.167Z,22.20
2022-08-25T15:46:23.919Z,23.00
2022-08-25T15:48:50.851Z,23.80
2022-08-25T15:51:18.989Z,24.40
2022-08-25T15:53:46.841Z,24.70
2022-08-25T15:56:17.954Z,24.80
2022-08-25T15:58:54.220Z,25.00
2022-08-25T16:01:24.961Z,25.30
2022-08-25T16:03:52.803Z,25.60
2022-08-25T16:06:19.778Z,25.70
2022-08-25T16:08:47.059Z,25.40
2022-08-25T16:11:20.559Z,25.00
2022-08-25T16:13:48.866Z,25.00
2022-08-25T16:16:16.557Z,25.30
2022-08-25T16:18:44.433Z,26.80
2022-08-25T16:21:13.742Z,27.90
2022-08-25T16:23:41.542Z,29.10
2022-08-25T16:26:12.913Z,29.70
2022-08-25T16:28:43.808Z,30.10
2022-08-25T16:31:14.002Z,30.80
2022-08-25T16:36:22.537Z,33.10
2022-08-25T16:38:50.547Z,34.40
2022-08-25T16:41:22.278Z,35.30
2022-08-25T16:43:50.126Z,36.10
2022-08-25T16:46:20.497Z,36.90
2022-08-25T16:48:48.678Z,37.60
2022-08-25T16:51:19.379Z,38.10
2022-08-25T16:54:08.371Z,38.60
2022-08-25T16:56:39.029Z,39.00
2022-08-25T16:59:07.359Z,39.70
2022-08-25T17:01:35.383Z,40.20
2022-08-25T17:04:03.192Z,41.10
2022-08-25T17:06:34.473Z,41.90
2022-08-25T17:09:01.314Z,42.30
2022-08-25T17:11:30.574Z,42.60
2022-08-25T17:14:00.708Z,42.60
2022-08-25T17:16:30.097Z,42.50
2022-08-25T17:19:00.614Z,42.40
2022-08-25T17:21:31.157Z,42.50
2022-08-25T17:23:58.089Z,42.90
2022-08-25T17:26:27.771Z,43.50
2022-08-25T17:29:00.098Z,43.90
2022-08-25T17:31:30.059Z,44.10
2022-08-25T17:33:58.150Z,44.60
2022-08-25T17:36:27.095Z,44.80
2022-08-25T17:38:55.369Z,44.70
2022-08-25T17:41:24.089Z,44.60
2022-08-25T17:43:51.033Z,44.90
2022-08-25T17:46:18.119Z,45.60
2022-08-25T17:48:45.072Z,46.10
2022-08-25T17:51:12.560Z,46.80
2022-08-25T17:53:43.707Z,47.40
2022-08-25T17:56:16.841Z,47.90
2022-08-25T17:58:45.689Z,48.60
2022-08-25T18:01:18.822Z,48.70
2022-08-25T18:03:46.172Z,48.90
2022-08-25T18:06:15.203Z,49.10
2022-08-25T18:08:44.400Z,49.50
2022-08-25T18:11:19.227Z,49.60
2022-08-25T18:13:46.083Z,49.90
2022-08-25T18:16:13.538Z,50.00
2022-08-25T18:18:42.292Z,50.40
2022-08-25T18:21:14.885Z,50.70
2022-08-25T18:23:42.459Z,51.00
2022-08-25T18:26:10.607Z,51.40
2022-08-25T18:28:39.976Z,51.70
2022-08-25T18:31:07.310Z,51.90
2022-08-25T18:33:34.806Z,52.20
2022-08-25T18:36:02.274Z,52.40
2022-08-25T18:38:47.767Z,52.90
2022-08-25T18:41:14.626Z,53.50
2022-08-25T18:43:41.371Z,53.70
2022-08-25T18:46:08.418Z,54.10
2022-08-25T18:48:37.504Z,54.50
2022-08-25T18:51:05.191Z,55.10
2022-08-25T18:53:49.813Z,55.70
2022-08-25T18:56:18.703Z,56.10
2022-08-25T18:58:47.419Z,56.30
2022-08-25T19:01:15.890Z,57.10
2022-08-25T19:03:43.362Z,57.50
2022-08-25T19:06:11.074Z,57.80
2022-08-25T19:08:41.884Z,58.10
2022-08-25T19:11:10.010Z,58.40
2022-08-25T19:13:37.753Z,58.50
2022-08-25T19:16:20.506Z,58.80
2022-08-25T19:18:48.633Z,59.20
2022-08-25T19:21:15.652Z,59.60
2022-08-25T19:23:42.487Z,59.90
2022-08-25T19:26:16.979Z,60.50
2022-08-25T19:28:48.847Z,60.60
2022-08-25T19:31:18.355Z,60.90
2022-08-25T19:33:47.396Z,61.30
2022-08-25T19:36:15.181Z,61.60
2022-08-25T19:38:42.036Z,61.90
2022-08-25T19:41:14.016Z,62.20
2022-08-25T19:43:55.772Z,62.30
2022-08-25T19:46:32.630Z,63.00
2022-08-25T19:49:09.672Z,63.10
2022-08-25T19:51:39.354Z,63.10
2022-08-25T19:54:09.258Z,63.30
2022-08-25T19:56:43.589Z,63.90
2022-08-25T19:59:26.762Z,64.10
2022-08-25T20:02:05.874Z,64.50
2022-08-25T20:04:33.530Z,64.60
2022-08-25T20:07:01.883Z,65.00
2022-08-25T20:09:39.188Z,65.30
2022-08-25T20:12:10.392Z,65.10
2022-08-25T20:14:38.010Z,65.20
2022-08-25T20:17:14.662Z,65.40
2022-08-25T20:19:57.163Z,65.40
2022-08-25T20:22:27.154Z,65.60
2022-08-25T20:25:13.334Z,65.90
2022-08-25T20:27:50.021Z,66.40
2022-08-25T20:30:23.016Z,66.20
2022-08-25T20:32:54.978Z,66.50
2022-08-25T20:35:26.596Z,66.60
2022-08-25T20:37:54.638Z,66.90
2022-08-25T20:40:25.765Z,67.00
2022-08-25T20:42:54.197Z,66.90
2022-08-25T20:45:22.009Z,67.40
2022-08-25T20:47:49.829Z,67.10
2022-08-25T20:50:17.262Z,67.30
2022-08-25T20:52:44.633Z,67.50
2022-08-25T20:55:12.388Z,67.50
2022-08-25T20:57:39.537Z,67.40
2022-08-25T21:00:07.138Z,67.30
2022-08-25T21:02:34.188Z,67.50
2022-08-25T21:05:02.503Z,67.80
2022-08-25T21:07:29.240Z,67.80
2022-08-25T21:09:57.807Z,67.90
2022-08-25T21:12:24.813Z,68.30
2022-08-25T21:14:51.873Z,68.60
2022-08-25T21:17:19.836Z,68.40
2022-08-25T21:22:19.014Z,68.70
2022-08-25T21:24:46.227Z,68.70
2022-08-25T21:27:13.505Z,68.60
2022-08-25T21:29:44.731Z,68.50
2022-08-25T21:32:23.385Z,68.60
2022-08-25T21:34:56.766Z,68.70
2022-08-25T21:37:24.830Z,68.50
2022-08-25T21:39:52.500Z,68.40
2022-08-25T21:42:24.873Z,68.40
2022-08-25T21:44:52.518Z,68.40
2022-08-25T21:47:21.035Z,68.40
2022-08-25T21:49:49.619Z,68.40
2022-08-25T21:52:16.660Z,68.30
2022-08-25T21:54:44.776Z,68.30
2022-08-25T21:57:11.638Z,68.30
2022-08-25T21:59:43.469Z,68.20
2022-08-25T22:02:13.230Z,68.20
2022-08-25T22:04:40.757Z,68.30
2022-08-25T22:07:08.835Z,68.30
2022-08-25T22:09:36.939Z,68.20
2022-08-25T22:12:04.734Z,68.30
2022-08-25T22:14:32.347Z,68.40
2022-08-25T22:16:59.747Z,68.30
2022-08-25T22:19:27.135Z,68.30
2022-08-25T22:21:55.260Z,68.30
2022-08-25T22:24:22.553Z,68.30
2022-08-25T22:26:55.335Z,68.50
2022-08-25T22:29:25.009Z,68.60
2022-08-25T22:31:58.627Z,68.60
2022-08-25T22:34:30.656Z,68.60
2022-08-25T22:37:00.281Z,68.70
2022-08-25T22:39:27.695Z,68.70
2022-08-25T22:41:54.516Z,68.70
2022-08-25T22:44:23.379Z,69.00
2022-08-25T22:46:50.199Z,69.00
2022-08-25T22:49:17.243Z,69.10
2022-08-25T22:51:44.340Z,69.00
2022-08-25T22:54:15.026Z,69.10
2022-08-25T22:56:42.461Z,69.10
2022-08-25T22:59:13.831Z,69.00
2022-08-25T23:01:45.118Z,69.00
2022-08-25T23:04:14.575Z,69.10
2022-08-25T23:06:41.713Z,69.10
2022-08-25T23:09:10.383Z,69.10
2022-08-25T23:11:38.830Z,69.10
2022-08-25T23:14:10.017Z,69.00
2022-08-25T23:16:41.882Z,69.00
2022-08-25T23:19:13.749Z,69.20
2022-08-25T23:22:01.158Z,69.20
2022-08-25T23:24:30.383Z,69.40
2022-08-25T23:26:59.843Z,69.30
2022-08-25T23:29:28.083Z,69.40
2022-08-25T23:31:55.343Z,69.40
2022-08-25T23:34:23.536Z,69.50
2022-08-25T23:36:50.781Z,69.50
2022-08-25T23:39:17.741Z,69.40
2022-08-25T23:41:44.563Z,69.50
2022-08-25T23:44:17.229Z,69.50
2022-08-25T23:46:45.378Z,69.40
2022-08-25T23:49:18.073Z,69.50
2022-08-25T23:51:50.423Z,69.40
2022-08-25T23:54:20.691Z,69.40
2022-08-25T23:56:52.407Z,69.40
2022-08-25T23:59:23.929Z,69.30
